createdAt,value
2017-12-24T00:00:37.911Z,101304.73
2017-12-24T00:03:40.041Z,101305.19
2017-12-24T00:06:41.335Z,101291.55
2017-12-24T00:09:42.653Z,101291.54
2017-12-24T00:12:43.970Z,101304.73
2017-12-24T00:15:45.309Z,101295.53
2017-12-24T00:18:46.591Z,101288.89
2017-12-24T00:21:47.915Z,101290.20
2017-12-24T00:24:49.200Z,101294.61
2017-12-24T00:27:50.526Z,101299.45
2017-12-24T00:30:51.829Z,101297.28
2017-12-24T00:33:53.877Z,101291.09
2017-12-24T00:36:55.173Z,101290.20
2017-12-24T00:39:56.519Z,101297.23
2017-12-24T00:42:57.861Z,101289.77
2017-12-24T00:45:59.185Z,101281.84
2017-12-24T00:49:01.273Z,101290.20
2017-12-24T00:52:02.570Z,101295.06
2017-12-24T00:55:03.889Z,101297.25
2017-12-24T00:58:05.226Z,101292.86
2017-12-24T01:01:06.521Z,101277.86
2017-12-24T01:04:07.851Z,101273.03
2017-12-24T01:07:09.961Z,101286.70
2017-12-24T01:10:11.313Z,101268.16
2017-12-24T01:13:12.662Z,101265.52
2017-12-24T01:16:14.011Z,101276.09
2017-12-24T01:19:15.332Z,101277.87
2017-12-24T01:22:16.672Z,101275.66
2017-12-24T01:25:17.953Z,101264.66
2017-12-24T01:28:19.283Z,101266.42
2017-12-24T01:31:20.598Z,101272.13
2017-12-24T01:34:21.931Z,101269.06
2017-12-24T01:37:23.997Z,101274.80
2017-12-24T01:40:26.041Z,101269.94
2017-12-24T01:43:27.356Z,101273.04
2017-12-24T01:46:28.662Z,101280.52
2017-12-24T01:49:30.749Z,101263.31
2017-12-24T01:52:32.064Z,101263.78
2017-12-24T01:55:33.383Z,101244.39
2017-12-24T01:58:34.739Z,101250.57
2017-12-24T02:01:36.063Z,101253.19
2017-12-24T02:04:37.415Z,101254.06
2017-12-24T02:07:38.736Z,101256.27
2017-12-24T02:10:40.793Z,101269.93
2017-12-24T02:13:42.127Z,101273.45
2017-12-24T02:16:43.501Z,101274.34
2017-12-24T02:19:44.817Z,101271.72
2017-12-24T02:22:46.183Z,101268.17
2017-12-24T02:25:47.519Z,101277.42
2017-12-24T02:28:48.808Z,101275.66
2017-12-24T02:31:50.177Z,101270.83
2017-12-24T02:34:51.500Z,101287.13
2017-12-24T02:37:52.816Z,101286.70
2017-12-24T02:40:54.163Z,101293.73
2017-12-24T02:43:55.525Z,101282.27
2017-12-24T02:46:56.894Z,101274.34
2017-12-24T02:49:58.216Z,101284.47
2017-12-24T02:52:59.583Z,101284.47
2017-12-24T02:56:00.903Z,101266.42
2017-12-24T02:59:02.291Z,101264.21
2017-12-24T03:02:03.592Z,101268.61
2017-12-24T03:05:04.969Z,101265.97
2017-12-24T03:08:06.312Z,101264.22
2017-12-24T03:11:07.673Z,101244.83
2017-12-24T03:14:08.991Z,101253.63
2017-12-24T03:17:10.280Z,101245.26
2017-12-24T03:20:18.539Z,101230.30
2017-12-24T03:23:19.861Z,101228.54
2017-12-24T03:26:21.205Z,101231.59
2017-12-24T03:29:22.497Z,101229.41
2017-12-24T03:32:23.853Z,101220.60
2017-12-24T03:35:25.200Z,101211.80
2017-12-24T03:38:27.246Z,101204.75
2017-12-24T03:41:28.557Z,101214.42
2017-12-24T03:44:29.868Z,101217.52
2017-12-24T03:47:31.188Z,101215.31
2017-12-24T03:50:32.472Z,101215.75
2017-12-24T03:53:33.837Z,101216.64
2017-12-24T03:56:35.179Z,101219.73
2017-12-24T03:59:36.519Z,101218.39
2017-12-24T04:02:37.866Z,101212.21
2017-12-24T04:05:39.955Z,101206.07
2017-12-24T04:08:41.292Z,101217.95
2017-12-24T04:11:42.621Z,101210.89
2017-12-24T04:14:44.699Z,101213.98
2017-12-24T04:17:46.769Z,101210.47
2017-12-24T04:20:48.854Z,101206.97
2017-12-24T04:23:50.202Z,101204.30
2017-12-24T04:26:51.542Z,101196.83
2017-12-24T04:29:52.883Z,101204.31
2017-12-24T04:32:54.925Z,101192.41
2017-12-24T04:35:56.382Z,101199.91
2017-12-24T04:38:57.709Z,101189.77
2017-12-24T04:41:59.017Z,101202.53
2017-12-24T04:45:01.062Z,101194.19
2017-12-24T04:48:02.451Z,101191.98
2017-12-24T04:51:03.794Z,101194.19
2017-12-24T04:54:05.097Z,101200.33
2017-12-24T04:57:06.539Z,101196.39
2017-12-24T05:00:07.907Z,101201.22
2017-12-24T05:03:09.241Z,101190.19
2017-12-24T05:06:10.544Z,101188.88
2017-12-24T05:09:12.636Z,101186.66
2017-12-24T05:12:13.966Z,101193.72
2017-12-24T05:15:15.355Z,101190.20
2017-12-24T05:18:16.747Z,101173.92
2017-12-24T05:21:18.812Z,101188.00
2017-12-24T05:24:20.933Z,101184.94
2017-12-24T05:27:22.244Z,101179.66
2017-12-24T05:30:24.309Z,101195.51
2017-12-24T05:33:26.344Z,101176.11
2017-12-24T05:36:27.672Z,101184.88
2017-12-24T05:39:29.433Z,101184.48
2017-12-24T05:42:30.765Z,101177.01
2017-12-24T05:45:32.101Z,101180.09
2017-12-24T05:48:34.136Z,101178.77
2017-12-24T05:51:35.468Z,101171.28
2017-12-24T05:54:36.754Z,101169.97
2017-12-24T05:57:38.860Z,101165.97
2017-12-24T06:00:40.192Z,101166.01
2017-12-24T06:03:41.512Z,101163.36
2017-12-24T06:06:42.851Z,101165.55
2017-12-24T06:09:44.152Z,101170.81
2017-12-24T06:12:45.486Z,101165.56
2017-12-24T06:15:47.532Z,101159.82
2017-12-24T06:18:49.589Z,101158.94
2017-12-24T06:21:50.887Z,101155.88
2017-12-24T06:24:52.240Z,101156.75
2017-12-24T06:27:53.574Z,101150.98
2017-12-24T06:30:55.606Z,101152.73
2017-12-24T06:33:56.925Z,101150.14
2017-12-24T06:36:58.995Z,101157.62
2017-12-24T06:40:00.333Z,101155.87
2017-12-24T06:43:01.632Z,101144.88
2017-12-24T06:46:02.942Z,101148.39
2017-12-24T06:49:04.242Z,101145.29
2017-12-24T06:52:05.569Z,101142.23
2017-12-24T06:55:06.913Z,101158.03
2017-12-24T06:58:08.256Z,101141.32
2017-12-24T07:01:09.584Z,101153.22
2017-12-24T07:04:11.603Z,101141.80
2017-12-24T07:07:12.949Z,101137.82
2017-12-24T07:10:14.224Z,101126.81
2017-12-24T07:13:16.300Z,101129.47
2017-12-24T07:16:18.331Z,101123.30
2017-12-24T07:19:19.644Z,101128.56
2017-12-24T07:22:20.980Z,101135.62
2017-12-24T07:25:22.267Z,101129.47
2017-12-24T07:28:23.570Z,101132.98
2017-12-24T07:31:24.912Z,101133.41
2017-12-24T07:34:26.991Z,101128.16
2017-12-24T07:37:28.309Z,101140.88
2017-12-24T07:40:29.656Z,101139.16
2017-12-24T07:43:31.724Z,101123.30
2017-12-24T07:46:33.041Z,101142.23
2017-12-24T07:49:34.380Z,101140.91
2017-12-24T07:52:36.422Z,101138.27
2017-12-24T07:55:37.752Z,101132.98
2017-12-24T07:58:39.084Z,101141.34
2017-12-24T08:01:40.402Z,101136.48
2017-12-24T08:04:41.712Z,101127.70
2017-12-24T08:07:43.772Z,101135.63
2017-12-24T08:10:45.108Z,101134.30
2017-12-24T08:13:46.434Z,101129.02
2017-12-24T08:16:47.757Z,101132.95
2017-12-24T08:19:49.054Z,101129.84
2017-12-24T08:22:50.395Z,101124.16
2017-12-24T08:25:51.673Z,101120.66
2017-12-24T08:28:52.992Z,101126.84
2017-12-24T08:31:54.331Z,101120.65
2017-12-24T08:34:55.620Z,101119.75
2017-12-24T08:37:56.941Z,101109.20
2017-12-24T08:40:58.225Z,101107.46
2017-12-24T08:44:00.286Z,101100.39
2017-12-24T08:47:01.596Z,101107.44
2017-12-24T08:50:02.947Z,101112.67
2017-12-24T08:53:04.293Z,101115.34
2017-12-24T08:56:05.612Z,101104.33
2017-12-24T08:59:06.968Z,101109.66
2017-12-24T09:02:08.252Z,101099.96
2017-12-24T09:05:09.610Z,101114.04
2017-12-24T09:08:10.918Z,101110.54
2017-12-24T09:11:12.304Z,101112.73
2017-12-24T09:14:13.644Z,101110.97
2017-12-24T09:17:14.940Z,101114.95
2017-12-24T09:20:16.267Z,101108.77
2017-12-24T09:23:17.572Z,101113.17
2017-12-24T09:26:18.924Z,101117.58
2017-12-24T09:29:20.220Z,101110.52
2017-12-24T09:32:21.554Z,101102.17
2017-12-24T09:35:22.847Z,101102.15
2017-12-24T09:38:24.159Z,101099.50
2017-12-24T09:41:25.508Z,101084.97
2017-12-24T09:44:26.816Z,101090.74
2017-12-24T09:47:28.116Z,101094.69
2017-12-24T09:50:29.434Z,101092.03
2017-12-24T09:53:30.735Z,101088.09
2017-12-24T09:56:32.016Z,101090.28
2017-12-24T09:59:33.361Z,101091.16
2017-12-24T10:02:35.408Z,101070.00
2017-12-24T10:05:36.710Z,101077.84
2017-12-24T10:08:38.163Z,101066.94
2017-12-24T10:11:39.428Z,101058.14
2017-12-24T10:14:40.736Z,101062.08
2017-12-24T10:17:42.080Z,101058.92
2017-12-24T10:20:44.168Z,101059.03
2017-12-24T10:23:45.461Z,101059.81
2017-12-24T10:26:46.799Z,101056.34
2017-12-24T10:29:48.695Z,101047.03
2017-12-24T10:32:50.071Z,101048.84
2017-12-24T10:35:51.368Z,101055.44
2017-12-24T10:38:52.700Z,101062.08
2017-12-24T10:41:54.044Z,101042.28
2017-12-24T10:44:55.350Z,101049.25
2017-12-24T10:47:56.668Z,101051.45
2017-12-24T10:50:58.011Z,101040.56
2017-12-24T10:53:59.348Z,101030.00
2017-12-24T10:57:00.661Z,101028.25
2017-12-24T11:00:02.960Z,101023.81
2017-12-24T11:03:04.310Z,101004.44
2017-12-24T11:06:05.608Z,101024.19
2017-12-24T11:09:06.916Z,101017.91
2017-12-24T11:12:08.192Z,101012.30
2017-12-24T11:15:09.541Z,101011.47
2017-12-24T11:18:10.968Z,101011.44
2017-12-24T11:21:12.284Z,101001.73
2017-12-24T11:24:14.338Z,101004.36
2017-12-24T11:27:15.651Z,101003.31
2017-12-24T11:30:17.008Z,100999.37
2017-12-24T11:33:18.306Z,100989.44
2017-12-24T11:36:20.431Z,100992.47
2017-12-24T11:39:22.014Z,100977.38
2017-12-24T11:42:24.723Z,100988.85
2017-12-24T11:45:27.123Z,100974.44
2017-12-24T11:48:28.459Z,100976.14
2017-12-24T11:51:29.791Z,100970.10
2017-12-24T11:54:31.925Z,100965.11
2017-12-24T11:57:33.236Z,100956.35
2017-12-24T12:00:34.674Z,100949.77
2017-12-24T12:03:35.973Z,100950.08
2017-12-24T12:06:37.266Z,100928.50
2017-12-24T12:09:39.339Z,100927.73
2017-12-24T12:12:40.665Z,100930.86
2017-12-24T12:15:41.983Z,100922.03
2017-12-24T12:18:50.298Z,100930.02
2017-12-24T12:21:51.616Z,100930.84
2017-12-24T12:24:52.949Z,100936.17
2017-12-24T12:27:54.290Z,100915.14
2017-12-24T12:30:56.373Z,100925.91
2017-12-24T12:33:57.687Z,100908.20
2017-12-24T12:36:59.033Z,100908.86
2017-12-24T12:40:00.315Z,100929.08
2017-12-24T12:43:02.376Z,100907.50
2017-12-24T12:46:04.407Z,100895.17
2017-12-24T12:49:06.641Z,100916.16
2017-12-24T12:52:07.985Z,100910.49
2017-12-24T12:55:09.331Z,100905.68
2017-12-24T12:58:10.689Z,100899.38
2017-12-24T13:01:11.992Z,100886.33
2017-12-24T13:04:13.319Z,100882.75
2017-12-24T13:07:14.626Z,100896.05
2017-12-24T13:10:16.711Z,100881.39
2017-12-24T13:13:18.074Z,100887.21
2017-12-24T13:16:19.371Z,100885.72
2017-12-24T13:19:20.672Z,100878.43
2017-12-24T13:22:21.990Z,100877.86
2017-12-24T13:25:24.083Z,100894.31
2017-12-24T13:28:25.428Z,100887.52
2017-12-24T13:31:26.760Z,100867.73
2017-12-24T13:34:28.801Z,100870.88
2017-12-24T13:37:30.144Z,100869.19
2017-12-24T13:40:31.485Z,100882.02
2017-12-24T13:43:32.784Z,100871.91
2017-12-24T13:46:34.876Z,100868.50
2017-12-24T13:49:36.243Z,100860.97
2017-12-24T13:52:37.578Z,100869.56
2017-12-24T13:55:38.872Z,100868.72
2017-12-24T13:58:40.216Z,100855.06
2017-12-24T14:01:42.291Z,100856.16
2017-12-24T14:04:43.718Z,100865.97
2017-12-24T14:07:45.041Z,100861.26
2017-12-24T14:10:46.396Z,100860.17
2017-12-24T14:13:47.865Z,100853.04
2017-12-24T14:16:49.178Z,100840.09
2017-12-24T14:19:51.867Z,100844.56
2017-12-24T14:22:53.158Z,100839.20
2017-12-24T14:25:54.463Z,100843.51
2017-12-24T14:28:56.545Z,100851.03
2017-12-24T14:31:57.838Z,100854.80
2017-12-24T14:34:59.180Z,100858.00
2017-12-24T14:38:00.504Z,100851.57
2017-12-24T14:41:01.873Z,100844.94
2017-12-24T14:44:03.188Z,100839.71
2017-12-24T14:47:05.276Z,100835.69
2017-12-24T14:50:06.584Z,100854.99
2017-12-24T14:53:07.941Z,100845.74
2017-12-24T14:56:10.043Z,100855.84
2017-12-24T14:59:11.387Z,100853.33
2017-12-24T15:02:12.727Z,100841.03
2017-12-24T15:05:14.768Z,100833.14
2017-12-24T15:08:16.096Z,100834.39
2017-12-24T15:11:17.422Z,100849.30
2017-12-24T15:14:18.751Z,100834.42
2017-12-24T15:17:20.122Z,100841.30
2017-12-24T15:20:21.439Z,100846.25
2017-12-24T15:23:23.508Z,100839.86
2017-12-24T15:26:25.552Z,100842.29
2017-12-24T15:29:26.872Z,100833.85
2017-12-24T15:32:28.169Z,100843.61
2017-12-24T15:35:30.263Z,100838.70
2017-12-24T15:38:31.565Z,100840.94
2017-12-24T15:41:32.919Z,100843.98
2017-12-24T15:44:34.271Z,100834.46
2017-12-24T15:47:35.572Z,100832.97
2017-12-24T15:50:36.933Z,100834.77
2017-12-24T15:53:38.233Z,100832.56
2017-12-24T15:56:39.639Z,100825.52
2017-12-24T15:59:40.969Z,100814.03
2017-12-24T16:02:42.319Z,100815.46
2017-12-24T16:05:43.663Z,100817.15
2017-12-24T16:08:44.979Z,100823.83
2017-12-24T16:11:46.369Z,100830.36
2017-12-24T16:14:48.410Z,100817.52
2017-12-24T16:17:49.771Z,100822.91
2017-12-24T16:20:51.830Z,100806.78
2017-12-24T16:23:53.148Z,100813.19
2017-12-24T16:26:54.450Z,100808.14
2017-12-24T16:29:56.511Z,100807.20
2017-12-24T16:32:58.598Z,100805.22
2017-12-24T16:35:59.927Z,100804.89
2017-12-24T16:39:02.072Z,100806.62
2017-12-24T16:42:03.403Z,100796.45
2017-12-24T16:45:04.747Z,100803.06
2017-12-24T16:48:06.040Z,100791.75
2017-12-24T16:51:07.412Z,100794.91
2017-12-24T16:54:09.496Z,100811.46
2017-12-24T16:57:10.836Z,100806.63
2017-12-24T17:00:12.912Z,100803.50
2017-12-24T17:03:14.244Z,100802.73
2017-12-24T17:06:16.353Z,100811.83
2017-12-24T17:09:17.668Z,100804.89
2017-12-24T17:12:19.741Z,100802.21
2017-12-24T17:15:21.096Z,100804.82
2017-12-24T17:18:22.415Z,100798.40
2017-12-24T17:21:23.740Z,100801.33
2017-12-24T17:24:25.063Z,100806.76
2017-12-24T17:27:26.408Z,100796.26
2017-12-24T17:30:27.707Z,100804.89
2017-12-24T17:33:29.903Z,100792.09
2017-12-24T17:36:32.002Z,100798.21
2017-12-24T17:39:33.343Z,100802.62
2017-12-24T17:42:34.738Z,100802.09
2017-12-24T17:45:36.051Z,100805.53
2017-12-24T17:48:37.384Z,100807.02
2017-12-24T17:51:39.420Z,100805.73
2017-12-24T17:54:41.768Z,100808.05
2017-12-24T17:57:43.059Z,100813.42
2017-12-24T18:00:44.440Z,100812.63
2017-12-24T18:03:45.715Z,100810.25
2017-12-24T18:06:47.084Z,100808.86
2017-12-24T18:09:48.456Z,100795.17
2017-12-24T18:12:49.752Z,100794.21
2017-12-24T18:15:51.076Z,100795.17
2017-12-24T18:18:53.362Z,100802.29
2017-12-24T18:21:54.672Z,100796.41
2017-12-24T18:24:56.095Z,100791.65
2017-12-24T18:27:57.451Z,100793.45
2017-12-24T18:30:58.803Z,100782.63
2017-12-24T18:34:00.119Z,100782.53
2017-12-24T18:37:01.441Z,100788.60
2017-12-24T18:40:02.791Z,100783.06
2017-12-24T18:43:04.118Z,100784.08
2017-12-24T18:46:05.417Z,100774.11
2017-12-24T18:49:07.467Z,100776.25
2017-12-24T18:52:08.803Z,100767.59
2017-12-24T18:55:10.111Z,100766.27
2017-12-24T18:58:11.507Z,100767.70
2017-12-24T19:01:12.787Z,100773.33
2017-12-24T19:04:14.884Z,100761.27
2017-12-24T19:07:16.179Z,100759.42
2017-12-24T19:10:17.592Z,100763.86
2017-12-24T19:13:18.923Z,100769.67
2017-12-24T19:16:20.259Z,100759.81
2017-12-24T19:19:22.285Z,100751.94
2017-12-24T19:22:23.590Z,100748.43
2017-12-24T19:25:24.907Z,100738.11
2017-12-24T19:28:26.204Z,100752.52
2017-12-24T19:31:27.557Z,100758.69
2017-12-24T19:34:28.907Z,100736.16
2017-12-24T19:37:30.246Z,100736.59
2017-12-24T19:40:31.553Z,100740.20
2017-12-24T19:43:32.886Z,100747.65
2017-12-24T19:46:34.211Z,100744.44
2017-12-24T19:49:35.522Z,100721.87
2017-12-24T19:52:37.627Z,100728.58
2017-12-24T19:55:38.922Z,100724.61
2017-12-24T19:58:40.291Z,100732.19
2017-12-24T20:01:42.407Z,100722.64
2017-12-24T20:04:44.465Z,100715.59
2017-12-24T20:07:45.872Z,100719.91
2017-12-24T20:10:47.263Z,100712.50
2017-12-24T20:13:54.889Z,100719.38
2017-12-24T20:16:56.212Z,100706.50
2017-12-24T20:19:58.486Z,100712.50
2017-12-24T20:22:59.750Z,100705.41
2017-12-24T20:26:01.100Z,100705.77
2017-12-24T20:29:02.415Z,100713.47
2017-12-24T20:32:04.474Z,100717.34
2017-12-24T20:35:06.209Z,100692.78
2017-12-24T20:38:07.610Z,100704.66
2017-12-24T20:41:09.305Z,100720.12
2017-12-24T20:44:10.590Z,100703.22
2017-12-24T20:47:11.997Z,100697.05
2017-12-24T20:50:13.300Z,100697.94
2017-12-24T20:53:15.323Z,100701.72
2017-12-24T20:56:16.561Z,100697.01
2017-12-24T20:59:17.862Z,100699.78
2017-12-24T21:02:19.951Z,100687.09
2017-12-24T21:05:21.246Z,100672.58
2017-12-24T21:08:22.535Z,100699.30
2017-12-24T21:11:23.925Z,100687.33
2017-12-24T21:14:26.100Z,100688.20
2017-12-24T21:17:27.461Z,100683.27
2017-12-24T21:20:28.805Z,100685.65
2017-12-24T21:23:30.054Z,100688.78
2017-12-24T21:26:31.518Z,100690.70
2017-12-24T21:29:32.837Z,100675.67
2017-12-24T21:32:35.084Z,100696.52
2017-12-24T21:35:37.112Z,100684.25
2017-12-24T21:38:38.365Z,100679.25
2017-12-24T21:41:39.677Z,100675.34
2017-12-24T21:44:41.767Z,100673.19
2017-12-24T21:47:43.207Z,100671.52
2017-12-24T21:50:44.537Z,100676.36
2017-12-24T21:53:46.532Z,100672.84
2017-12-24T21:56:47.840Z,100675.61
2017-12-24T21:59:49.074Z,100672.00
2017-12-24T22:02:50.416Z,100665.84
2017-12-24T22:05:51.686Z,100673.38
2017-12-24T22:08:53.725Z,100678.52
2017-12-24T22:11:54.996Z,100672.20
2017-12-24T22:14:56.260Z,100679.14
2017-12-24T22:17:58.332Z,100675.83
2017-12-24T22:21:00.336Z,100673.68
2017-12-24T22:24:01.573Z,100666.80
2017-12-24T22:27:02.830Z,100686.83
2017-12-24T22:30:04.114Z,100693.97
2017-12-24T22:33:05.371Z,100680.97
2017-12-24T22:36:06.637Z,100687.44
2017-12-24T22:39:08.660Z,100684.98
2017-12-24T22:42:09.917Z,100682.80
2017-12-24T22:45:11.202Z,100676.52
2017-12-24T22:48:13.265Z,100679.30
2017-12-24T22:51:15.335Z,100675.33
2017-12-24T22:54:17.359Z,100668.72
2017-12-24T22:57:18.647Z,100668.19
2017-12-24T23:00:20.660Z,100667.80
2017-12-24T23:03:21.920Z,100664.56
2017-12-24T23:06:23.468Z,100663.68
2017-12-24T23:09:24.756Z,100667.12
2017-12-24T23:12:26.041Z,100661.88
2017-12-24T23:15:27.374Z,100658.75
2017-12-24T23:18:28.681Z,100631.73
2017-12-24T23:21:29.966Z,100646.81
2017-12-24T23:24:31.971Z,100660.30
2017-12-24T23:27:33.259Z,100661.17
2017-12-24T23:30:34.589Z,100662.01
2017-12-24T23:33:35.884Z,100666.81
2017-12-24T23:36:37.857Z,100645.64
2017-12-24T23:39:39.859Z,100662.50
2017-12-24T23:42:41.177Z,100664.86
2017-12-24T23:45:42.481Z,100668.97
2017-12-24T23:48:43.781Z,100661.47
2017-12-24T23:51:45.052Z,100659.58
2017-12-24T23:54:46.351Z,100664.37
2017-12-24T23:57:48.336Z,100660.69
